Time;durP1;ratioP1;P1;durP2;ratioP2;P2;SDS_P1;SDS_P2;PMS_P1;PMS_P2;Temp;Humidity;BMP_temperature;BMP_pressure;BME280_temperature;BME280_humidity;BME280_pressure;Samples;Min_cycle;Max_cycle;Signal;HPM_P1;HPM_P2
2023/11/30 00:02:32;;;;;;;4.53;4.13;;;;;;;-1.10;100.00;148392.22;10499694;28;20442;-70
2023/11/30 00:07:33;;;;;;;7.13;4.95;;;;;;;-0.90;100.00;148442.09;10497543;28;20047;-70
2023/11/30 00:12:35;;;;;;;5.90;5.13;;;;;;;-0.61;100.00;148515.03;10497714;28;20037;-70
2023/11/30 00:17:37;;;;;;;6.18;5.57;;;;;;;-0.54;100.00;148532.91;10498720;28;20041;-70
2023/11/30 00:22:39;;;;;;;6.05;5.45;;;;;;;-0.77;100.00;148476.63;10499938;28;20052;-70
2023/11/30 00:27:40;;;;;;;5.93;5.30;;;;;;;-1.03;100.00;148410.09;10499309;28;20132;-70
2023/11/30 00:32:42;;;;;;;5.32;4.82;;;;;;;-0.77;100.00;148476.63;10498504;28;20068;-70
2023/11/30 00:37:44;;;;;;;6.03;5.35;;;;;;;-0.78;100.00;148474.09;10499144;28;20047;-70
2023/11/30 00:42:45;;;;;;;6.55;5.95;;;;;;;-0.51;100.00;148541.88;10500489;28;20115;-70
2023/11/30 00:47:47;;;;;;;6.55;5.35;;;;;;;-0.47;100.00;148549.59;10505736;28;20112;-70
2023/11/30 00:52:49;;;;;;;5.78;5.28;;;;;;;-0.50;100.00;148543.16;10505366;28;20040;-70
2023/11/30 00:57:52;;;;;;;6.75;6.03;;;;;;;-0.57;100.00;148525.28;10504535;28;20040;-70
2023/11/30 01:02:55;;;;;;;6.70;5.80;;;;;;;-0.49;100.00;148545.72;10503546;28;20043;-72
2023/11/30 01:07:57;;;;;;;5.68;5.18;;;;;;;-0.28;100.00;148599.47;10505641;28;20481;-70
2023/11/30 01:12:58;;;;;;;5.82;5.22;;;;;;;-0.25;100.00;148605.88;10505866;28;20452;-70
2023/11/30 01:18:00;;;;;;;6.57;4.70;;;;;;;-0.26;100.00;148603.34;10505367;28;20041;-70
2023/11/30 01:23:02;;;;;;;4.65;3.97;;;;;;;-0.35;100.00;148581.56;10504812;28;20095;-69
2023/11/30 01:28:04;;;;;;;5.47;4.97;;;;;;;-0.29;100.00;148596.91;10504087;28;20048;-71
2023/11/30 01:33:05;;;;;;;5.47;4.97;;;;;;;-0.42;100.00;148563.63;10502406;28;20098;-70
2023/11/30 01:38:07;;;;;;;4.15;3.75;;;;;;;-0.33;100.00;148585.41;10501840;28;20052;-70
2023/11/30 01:43:09;;;;;;;4.85;4.35;;;;;;;-0.53;100.00;148535.50;10503105;28;20127;-69
2023/11/30 01:48:12;;;;;;;5.57;4.88;;;;;;;-0.45;100.00;148555.94;10501714;28;20507;-69
2023/11/30 01:53:15;;;;;;;6.15;5.55;;;;;;;-0.62;100.00;148513.75;10500617;28;20045;-69
2023/11/30 01:58:17;;;;;;;6.78;6.07;;;;;;;-0.51;100.00;148541.88;10502742;28;20045;-69
2023/11/30 02:03:19;;;;;;;5.85;5.28;;;;;;;-0.54;100.00;148532.91;10501394;28;20044;-69
2023/11/30 02:08:26;;;;;;;6.60;5.78;;;;;;;-0.69;100.00;148495.84;10502847;28;20064;-69
2023/11/30 02:13:27;;;;;;;5.78;5.18;;;;;;;-0.82;100.00;148462.56;10501448;28;20508;-70
2023/11/30 02:18:29;;;;;;;5.88;5.03;;;;;;;-0.54;100.00;148532.91;10500227;28;20098;-67
2023/11/30 02:23:31;;;;;;;4.35;3.95;;;;;;;-0.42;100.00;148563.63;10503402;28;20071;-67
2023/11/30 02:28:33;;;;;;;4.88;4.35;;;;;;;-0.17;100.00;148626.38;10504446;28;20119;-68
2023/11/30 02:33:34;;;;;;;4.65;4.25;;;;;;;-0.53;100.00;148536.78;10504734;28;20124;-67
2023/11/30 02:38:36;;;;;;;5.38;4.72;;;;;;;-0.62;100.00;148512.44;10505849;28;20488;-68
2023/11/30 02:43:38;;;;;;;3.80;3.05;;;;;;;-0.29;100.00;148595.66;10505855;28;20427;-69
2023/11/30 02:48:40;;;;;;;4.60;4.20;;;;;;;-0.36;100.00;148578.97;10503937;28;20492;-67
2023/11/30 02:53:41;;;;;;;3.63;3.33;;;;;;;-0.15;100.00;148630.19;10503601;28;20048;-67
2023/11/30 02:58:43;;;;;;;4.32;3.55;;;;;;;-0.32;100.00;148587.94;10502966;28;20098;-67
2023/11/30 03:03:45;;;;;;;3.45;3.08;;;;;;;-0.74;100.00;148483.03;10506021;28;20136;-68
2023/11/30 03:08:47;;;;;;;3.50;2.00;;;;;;;-0.76;100.00;148477.91;10503767;28;20052;-68
2023/11/30 03:13:49;;;;;;;1.77;1.42;;;;;;;-1.12;100.00;148388.38;10505656;28;20041;-68
2023/11/30 03:18:51;;;;;;;1.70;1.58;;;;;;;-1.27;100.00;148351.28;10488225;28;20048;-67
2023/11/30 03:24:13;;;;;;;1.40;1.30;;;;;;;-1.20;100.00;148366.63;10505545;28;20124;-68
2023/11/30 03:29:14;;;;;;;2.03;1.80;;;;;;;-1.39;100.00;148319.31;10505126;28;20492;-68
2023/11/30 03:34:16;;;;;;;2.55;2.33;;;;;;;-0.95;100.00;148430.59;10503243;28;20047;-68
2023/11/30 03:39:18;;;;;;;3.03;2.60;;;;;;;-1.24;100.00;148356.38;10504849;28;20132;-67
2023/11/30 03:44:19;;;;;;;3.63;3.22;;;;;;;-1.46;100.00;148302.72;10503790;28;20041;-67
2023/11/30 03:49:21;;;;;;;2.97;2.55;;;;;;;-1.20;100.00;148366.63;10505030;28;20110;-67
2023/11/30 03:54:24;;;;;;;4.30;3.28;;;;;;;-1.33;100.00;148334.66;10503400;28;20052;-67
2023/11/30 03:59:25;;;;;;;3.65;3.03;;;;;;;-1.28;100.00;148347.47;10504369;28;20123;-68
2023/11/30 04:04:27;;;;;;;4.80;4.28;;;;;;;-1.35;100.00;148330.84;10504696;28;20048;-68
2023/11/30 04:09:29;;;;;;;3.95;3.55;;;;;;;-1.48;100.00;148296.31;10504508;28;20514;-67
2023/11/30 04:14:31;;;;;;;4.60;3.88;;;;;;;-1.35;100.00;148329.56;10503341;28;20045;-68
2023/11/30 04:19:33;;;;;;;3.80;3.50;;;;;;;-1.54;100.00;148282.25;10509350;28;20464;-67
2023/11/30 04:24:34;;;;;;;3.42;3.13;;;;;;;-1.58;100.00;148273.31;10512811;28;20055;-68
2023/11/30 04:29:36;;;;;;;3.47;2.95;;;;;;;-1.31;100.00;148339.78;10512489;28;20044;-67
2023/11/30 04:34:38;;;;;;;4.22;3.92;;;;;;;-1.31;100.00;148341.06;10511773;28;20123;-67
2023/11/30 04:39:40;;;;;;;4.65;4.18;;;;;;;-1.44;100.00;148307.81;10512874;28;20037;-67
2023/11/30 04:44:43;;;;;;;4.72;4.25;;;;;;;-1.19;100.00;148369.22;10511500;28;20098;-67
2023/11/30 04:49:44;;;;;;;5.15;4.65;;;;;;;-1.01;100.00;148415.25;10512198;28;20072;-68
2023/11/30 04:54:46;;;;;;;5.50;4.82;;;;;;;-1.31;100.00;148341.06;10513670;28;20043;-67
2023/11/30 04:59:48;;;;;;;5.43;4.93;;;;;;;-1.51;100.00;148289.91;10495359;28;20492;-67
2023/11/30 05:04:50;;;;;;;5.93;5.05;;;;;;;-1.50;100.00;148292.50;10511645;28;20045;-67
2023/11/30 05:09:52;;;;;;;5.97;5.38;;;;;;;-1.65;100.00;148255.38;10510793;28;20055;-68
2023/11/30 05:14:53;;;;;;;5.70;5.10;;;;;;;-1.54;100.00;148283.53;10510392;28;20037;-67
2023/11/30 05:19:57;;;;;;;6.65;5.05;;;;;;;-1.75;100.00;148229.84;10509443;28;20106;-67
2023/11/30 05:24:58;;;;;;;5.47;4.97;;;;;;;-1.82;100.00;148213.19;10511070;28;20067;-67
2023/11/30 05:30:00;;;;;;;7.40;5.20;;;;;;;-1.69;100.00;148245.16;10507922;28;20048;-68
2023/11/30 05:35:05;;;;;;;6.38;4.65;;;;;;;-1.87;100.00;148200.41;10502961;28;20043;-68
2023/11/30 05:40:07;;;;;;;5.25;4.75;;;;;;;-1.91;100.00;148190.19;10502337;28;20044;-69
2023/11/30 05:45:09;;;;;;;5.45;4.88;;;;;;;-1.74;100.00;148231.09;10502962;28;20387;-68
2023/11/30 05:50:12;;;;;;;6.30;5.65;;;;;;;-1.89;100.00;148194.06;10502547;28;20075;-69
2023/11/30 05:55:15;;;;;;;6.25;5.38;;;;;;;-1.94;100.00;148182.56;10503280;28;20488;-70
2023/11/30 06:00:17;;;;;;;5.65;5.07;;;;;;;-2.10;100.00;148142.91;10501993;28;20090;-71
2023/11/30 06:05:19;;;;;;;6.35;5.75;;;;;;;-2.22;100.00;148110.97;10503076;28;20045;-71
2023/11/30 06:10:21;;;;;;;6.35;5.68;;;;;;;-2.20;100.00;148116.09;10501457;28;20440;-69
2023/11/30 06:15:23;;;;;;;6.68;5.97;;;;;;;-2.28;100.00;148096.94;10501446;28;20048;-69
2023/11/30 06:20:24;;;;;;;8.13;5.90;;;;;;;-2.30;100.00;148093.13;10501759;28;20053;-69
2023/11/30 06:25:26;;;;;;;6.60;5.57;;;;;;;-2.35;100.00;148080.28;10500774;28;20036;-69
2023/11/30 06:30:28;;;;;;;8.68;6.35;;;;;;;-2.25;100.00;148103.34;10501801;28;20128;-70
2023/11/30 06:35:29;;;;;;;7.35;6.10;;;;;;;-2.35;100.00;148079.03;10499720;28;20511;-69
2023/11/30 06:40:31;;;;;;;7.57;5.72;;;;;;;-2.32;100.00;148087.97;10500740;28;20040;-68
2023/11/30 06:45:33;;;;;;;7.57;6.85;;;;;;;-2.52;100.00;148036.91;10501045;28;20041;-68
2023/11/30 06:50:35;;;;;;;8.10;7.30;;;;;;;-2.48;100.00;148045.81;10499115;28;20060;-69
2023/11/30 06:55:37;;;;;;;6.85;6.15;;;;;;;-2.61;100.00;148015.19;10498902;28;20048;-68
2023/11/30 07:00:39;;;;;;;9.13;7.47;;;;;;;-2.65;100.00;148004.97;10501006;28;20044;-69
2023/11/30 07:05:41;;;;;;;10.23;7.68;;;;;;;-2.55;100.00;148030.50;10500525;28;20412;-70
2023/11/30 07:10:43;;;;;;;11.85;8.88;;;;;;;-2.58;100.00;148021.56;10503230;28;20055;-70
2023/11/30 07:15:45;;;;;;;11.25;9.23;;;;;;;-2.47;100.00;148049.69;10500488;28;20043;-70
2023/11/30 07:20:47;;;;;;;13.82;9.77;;;;;;;-2.73;100.00;147983.25;10497595;28;20056;-70
2023/11/30 07:25:48;;;;;;;10.07;8.18;;;;;;;-2.78;100.00;147971.75;10497160;28;20051;-70
2023/11/30 07:30:50;;;;;;;12.65;9.30;;;;;;;-2.68;100.00;147996.03;10481655;28;20059;-68
2023/11/30 07:35:52;;;;;;;10.52;9.45;;;;;;;-2.60;100.00;148017.72;10500013;28;20195;-69
2023/11/30 07:40:54;;;;;;;11.85;9.80;;;;;;;-2.50;100.00;148040.72;10501145;28;20403;-69
2023/11/30 07:45:56;;;;;;;15.38;9.93;;;;;;;-2.41;100.00;148065.00;10501156;28;20111;-68
2023/11/30 07:50:57;;;;;;;14.73;9.20;;;;;;;-2.24;100.00;148105.88;10500032;28;20529;-70
2023/11/30 07:56:00;;;;;;;14.13;9.20;;;;;;;-2.24;100.00;148105.88;10508577;28;20036;-69
2023/11/30 08:01:02;;;;;;;18.08;11.48;;;;;;;-2.36;100.00;148076.47;10473623;28;20048;-69
2023/11/30 08:06:06;;;;;;;14.85;10.50;;;;;;;-2.51;100.00;148039.44;10508047;28;20046;-69
2023/11/30 08:11:08;;;;;;;13.20;9.32;;;;;;;-2.59;100.00;148020.28;10508310;28;20048;-69
2023/11/30 08:16:09;;;;;;;12.25;9.38;;;;;;;-2.63;100.00;148010.06;10507007;28;20032;-69
2023/11/30 08:21:11;;;;;;;10.93;9.70;;;;;;;-2.46;100.00;148052.22;10507856;28;20094;-68
2023/11/30 08:26:15;;;;;;;11.40;10.02;;;;;;;-2.24;100.00;148105.88;10509635;28;20048;-68
2023/11/30 08:31:16;;;;;;;14.88;10.07;;;;;;;-2.28;100.00;148096.94;10512496;28;20072;-68
2023/11/30 08:36:18;;;;;;;13.77;8.90;;;;;;;-2.29;100.00;148094.38;10509950;28;20400;-67
2023/11/30 08:41:20;;;;;;;14.00;11.15;;;;;;;-2.32;100.00;148086.72;10509391;28;20048;-68
2023/11/30 08:46:22;;;;;;;14.82;10.35;;;;;;;-2.19;100.00;148119.94;10508206;28;20036;-68
2023/11/30 08:51:24;;;;;;;14.68;10.73;;;;;;;-2.18;100.00;148121.19;10506630;28;20381;-68
2023/11/30 08:56:26;;;;;;;12.57;9.93;;;;;;;-1.86;100.00;148201.69;10508640;28;20045;-69
2023/11/30 09:01:27;;;;;;;13.45;11.25;;;;;;;-1.77;100.00;148224.75;10508956;28;20041;-68
2023/11/30 09:06:30;;;;;;;17.50;10.57;;;;;;;-1.95;100.00;148179.97;10506763;28;20044;-67
2023/11/30 09:11:33;;;;;;;11.10;9.48;;;;;;;-2.04;100.00;148158.28;10508557;28;20482;-67
2023/11/30 09:16:36;;;;;;;11.88;9.77;;;;;;;-1.94;100.00;148182.56;10506919;28;20060;-67
2023/11/30 09:21:38;;;;;;;10.93;9.30;;;;;;;-1.81;100.00;148214.50;10508167;28;20495;-67
2023/11/30 09:26:40;;;;;;;11.90;9.77;;;;;;;-1.69;100.00;148243.88;10509049;28;20064;-69
2023/11/30 09:31:46;;;;;;;10.95;9.57;;;;;;;-1.72;100.00;148237.53;10509548;28;20115;-68
2023/11/30 09:36:49;;;;;;;10.63;9.45;;;;;;;-1.80;100.00;148218.34;10509195;28;20047;-68
2023/11/30 09:41:52;;;;;;;11.43;9.07;;;;;;;-1.72;100.00;148237.53;10509055;28;20047;-68
2023/11/30 09:46:53;;;;;;;9.88;8.57;;;;;;;-1.66;100.00;148251.56;10509506;28;20052;-68
2023/11/30 09:51:56;;;;;;;14.15;8.20;;;;;;;-1.65;100.00;148254.13;10508907;28;20033;-68
2023/11/30 09:56:58;;;;;;;12.43;8.93;;;;;;;-1.51;100.00;148289.91;10508842;28;20040;-68
2023/11/30 10:02:00;;;;;;;10.60;9.38;;;;;;;-1.50;100.00;148292.50;10508354;28;20045;-68
2023/11/30 10:07:07;;;;;;;12.48;9.70;;;;;;;-1.46;100.00;148302.72;10508698;28;20040;-68
2023/11/30 10:12:10;;;;;;;10.80;8.10;;;;;;;-1.26;100.00;148352.56;10507834;28;20041;-68
2023/11/30 10:17:12;;;;;;;12.20;9.48;;;;;;;-1.44;100.00;148306.53;10506844;28;20457;-68
2023/11/30 10:22:14;;;;;;;12.85;9.65;;;;;;;-1.47;100.00;148298.84;10507011;28;20044;-68
2023/11/30 10:27:20;;;;;;;10.40;8.85;;;;;;;-1.03;100.00;148411.38;10507244;28;20100;-69
2023/11/30 10:32:22;;;;;;;11.32;9.35;;;;;;;-1.07;100.00;148399.88;10506055;28;20044;-68
2023/11/30 10:37:26;;;;;;;12.18;9.48;;;;;;;-1.14;100.00;148383.28;10505929;28;20040;-69
2023/11/30 10:42:32;;;;;;;12.23;9.65;;;;;;;-1.16;100.00;148378.13;10506671;28;20111;-69
2023/11/30 10:47:38;;;;;;;14.15;9.52;;;;;;;-0.66;100.00;148503.53;10507105;28;20642;-68
2023/11/30 10:52:43;;;;;;;11.00;9.60;;;;;;;-0.77;100.00;148476.63;10504773;28;20044;-68
2023/11/30 10:57:46;;;;;;;14.25;10.02;;;;;;;0.13;100.00;148700.59;10505096;28;20036;-68
2023/11/30 11:02:48;;;;;;;11.88;9.90;;;;;;;2.84;91.20;149382.53;10505534;28;20044;-67
2023/11/30 11:07:52;;;;;;;10.02;8.73;;;;;;;4.12;75.40;149704.78;10506062;28;20036;-68
2023/11/30 11:13:05;;;;;;;9.02;7.63;;;;;;;5.68;69.23;150098.13;10506704;28;20052;-66
2023/11/30 11:18:15;;;;;;;10.43;8.43;;;;;;;6.51;64.83;150307.91;10508029;28;20040;-66
2023/11/30 11:23:19;;;;;;;16.23;9.32;;;;;;;6.07;65.96;150195.94;10508421;28;20040;-66
2023/11/30 11:28:21;;;;;;;8.90;7.97;;;;;;;7.19;62.07;150477.84;10506473;28;20072;-66
2023/11/30 11:33:24;;;;;;;9.95;8.25;;;;;;;6.33;63.88;150261.59;10507133;28;20041;-66
2023/11/30 11:38:26;;;;;;;9.57;8.32;;;;;;;5.85;69.11;150139.31;10507074;28;20045;-66
2023/11/30 11:43:27;;;;;;;10.05;8.38;;;;;;;4.54;68.88;149811.41;10505323;28;20037;-69
2023/11/30 11:48:29;;;;;;;9.77;8.20;;;;;;;4.05;73.84;149688.06;10498903;28;20111;-68
2023/11/30 11:53:37;;;;;;;10.30;7.90;;;;;;;3.77;73.16;149617.44;10500295;28;20049;-69
2023/11/30 11:58:45;;;;;;;9.10;7.95;;;;;;;4.49;73.80;149797.28;10499025;28;20072;-68
2023/11/30 12:03:49;;;;;;;8.80;7.03;;;;;;;4.78;68.35;149871.84;10500866;28;20552;-68
2023/11/30 12:08:52;;;;;;;8.02;7.25;;;;;;;3.09;74.26;149444.09;10498004;28;20496;-68
2023/11/30 12:13:54;;;;;;;12.23;9.30;;;;;;;2.73;77.97;149355.56;10497851;28;20075;-67
2023/11/30 12:18:55;;;;;;;12.60;9.45;;;;;;;2.59;79.73;149318.34;10498706;28;20127;-65
2023/11/30 12:23:57;;;;;;;12.35;10.02;;;;;;;2.44;82.36;149282.44;10501878;28;20037;-65
2023/11/30 12:28:59;;;;;;;10.30;9.20;;;;;;;1.54;88.19;149054.16;10499548;28;20044;-69
2023/11/30 12:34:01;;;;;;;10.82;8.57;;;;;;;1.23;92.18;148978.53;10499476;28;20040;-67
2023/11/30 12:39:03;;;;;;;10.38;8.98;;;;;;;1.46;90.49;149034.94;10484331;28;20049;-67
2023/11/30 12:44:05;;;;;;;9.75;8.73;;;;;;;1.58;89.47;149065.72;10490195;28;20194;-66
2023/11/30 12:49:07;;;;;;;9.23;8.13;;;;;;;1.27;91.50;148988.81;10509909;28;20098;-66
2023/11/30 12:54:08;;;;;;;9.98;8.98;;;;;;;1.05;93.58;148932.41;10510649;28;20102;-67
2023/11/30 12:59:10;;;;;;;9.38;7.45;;;;;;;0.72;96.20;148850.44;10510309;28;20055;-67
2023/11/30 13:04:12;;;;;;;11.00;7.85;;;;;;;0.72;96.41;148849.16;10510185;28;20169;-65
2023/11/30 13:09:14;;;;;;;9.20;8.10;;;;;;;0.71;97.51;148846.63;10509471;28;20132;-67
2023/11/30 13:14:17;;;;;;;9.20;8.20;;;;;;;1.22;93.10;148976.00;10510627;28;20397;-67
2023/11/30 13:19:20;;;;;;;9.15;7.28;;;;;;;0.90;95.08;148894.00;10509370;28;20090;-66
2023/11/30 13:24:26;;;;;;;9.70;8.52;;;;;;;0.72;97.13;148849.16;10509732;28;20036;-66
2023/11/30 13:29:28;;;;;;;9.85;8.77;;;;;;;0.62;99.75;148824.84;10510498;28;20044;-67
2023/11/30 13:34:30;;;;;;;10.45;8.48;;;;;;;0.80;98.90;148869.66;10510043;28;20102;-66
2023/11/30 13:39:31;;;;;;;41.67;20.35;;;;;;;0.98;97.07;148915.78;10510284;28;20067;-66
2023/11/30 13:44:34;;;;;;;10.38;9.27;;;;;;;1.08;96.25;148940.13;10509864;28;20049;-66
2023/11/30 13:49:35;;;;;;;13.50;12.10;;;;;;;0.96;96.26;148910.63;10508514;28;20056;-65
2023/11/30 13:54:37;;;;;;;29.92;18.65;;;;;;;0.74;99.01;148855.53;10509272;28;20523;-67
2023/11/30 13:59:39;;;;;;;11.65;10.48;;;;;;;0.83;97.47;148876.06;10509587;28;20045;-66
2023/11/30 14:04:41;;;;;;;9.68;8.68;;;;;;;0.63;99.15;148827.38;10509611;28;20068;-67
2023/11/30 14:09:42;;;;;;;10.25;9.10;;;;;;;0.53;100.00;148801.75;10508181;28;20051;-66
2023/11/30 14:14:45;;;;;;;10.90;8.98;;;;;;;0.62;100.00;148824.84;10509612;28;20070;-68
2023/11/30 14:19:47;;;;;;;10.45;9.35;;;;;;;0.67;98.69;148837.66;10507069;28;20127;-69
2023/11/30 14:24:49;;;;;;;16.05;9.90;;;;;;;0.53;100.00;148800.47;10502756;28;20477;-68
2023/11/30 14:29:51;;;;;;;12.13;9.35;;;;;;;0.42;100.00;148774.88;10503085;28;20119;-68
2023/11/30 14:34:53;;;;;;;11.38;9.20;;;;;;;0.35;100.00;148756.91;10502325;28;20037;-68
2023/11/30 14:39:54;;;;;;;11.52;9.90;;;;;;;0.11;100.00;148696.75;10502394;28;20506;-68
2023/11/30 14:44:56;;;;;;;14.80;9.02;;;;;;;-0.01;100.00;148667.28;10501298;28;20054;-68
2023/11/30 14:49:58;;;;;;;11.48;9.75;;;;;;;-0.11;100.00;148640.44;10501565;28;20412;-68
2023/11/30 14:55:00;;;;;;;10.63;8.85;;;;;;;-0.27;100.00;148602.06;10501930;28;20127;-68
2023/11/30 15:00:04;;;;;;;10.98;9.18;;;;;;;-0.26;100.00;148603.34;10482682;28;20079;-69
2023/11/30 15:05:09;;;;;;;10.93;8.85;;;;;;;-0.27;100.00;148600.75;10499635;28;20148;-69
2023/11/30 15:10:11;;;;;;;9.45;8.45;;;;;;;-0.18;100.00;148622.50;10501501;28;20158;-69
2023/11/30 15:15:13;;;;;;;9.23;8.15;;;;;;;-0.36;100.00;148577.72;10501319;28;20033;-69
2023/11/30 15:20:17;;;;;;;9.52;8.38;;;;;;;-0.22;100.00;148613.56;10501023;28;20041;-69
2023/11/30 15:25:22;;;;;;;11.80;9.00;;;;;;;-0.37;100.00;148576.44;10500382;28;20029;-69
2023/11/30 15:30:25;;;;;;;10.85;8.38;;;;;;;-0.46;100.00;148552.13;10501507;28;20116;-69
2023/11/30 15:35:28;;;;;;;10.90;9.25;;;;;;;-0.53;100.00;148536.78;10499717;28;20041;-69
2023/11/30 15:40:30;;;;;;;10.70;9.60;;;;;;;-0.25;100.00;148605.88;10498819;28;20048;-69
2023/11/30 15:45:32;;;;;;;16.58;10.18;;;;;;;-0.05;100.00;148657.06;10498924;28;20064;-69
2023/11/30 15:50:34;;;;;;;11.15;9.82;;;;;;;-0.12;100.00;148639.16;10499672;28;20106;-69
2023/11/30 15:55:36;;;;;;;12.40;9.30;;;;;;;0.18;100.00;148714.72;10499308;28;20040;-70
2023/11/30 16:00:38;;;;;;;17.05;10.25;;;;;;;0.17;100.00;148710.84;10500211;28;20048;-69
2023/11/30 16:05:39;;;;;;;11.60;10.20;;;;;;;-0.05;100.00;148655.78;10498875;28;20045;-68
2023/11/30 16:10:41;;;;;;;11.73;10.52;;;;;;;-0.13;100.00;148636.63;10497671;28;20044;-68
2023/11/30 16:15:43;;;;;;;12.35;10.05;;;;;;;0.16;100.00;148708.28;10504760;28;20128;-68
2023/11/30 16:20:45;;;;;;;13.30;11.88;;;;;;;0.38;100.00;148764.63;10506236;28;20041;-68
2023/11/30 16:25:47;;;;;;;12.90;11.57;;;;;;;0.22;100.00;148723.63;10506339;28;20568;-68
2023/11/30 16:30:49;;;;;;;15.43;11.10;;;;;;;0.30;100.00;148742.84;10506466;28;20094;-68
2023/11/30 16:35:51;;;;;;;15.93;11.18;;;;;;;0.27;100.00;148735.16;10505446;28;20041;-68
2023/11/30 16:40:53;;;;;;;12.60;11.40;;;;;;;0.02;100.00;148672.44;10506699;28;20068;-68
2023/11/30 16:45:55;;;;;;;12.43;10.82;;;;;;;0.09;100.00;148690.34;10506791;28;20551;-68
2023/11/30 16:50:58;;;;;;;12.15;10.85;;;;;;;0.06;100.00;148682.69;10507026;28;20056;-68
2023/11/30 16:56:00;;;;;;;12.38;11.07;;;;;;;-0.10;100.00;148643.00;10506612;28;20457;-68
2023/11/30 17:01:02;;;;;;;11.65;10.50;;;;;;;0.04;100.00;148677.53;10507383;28;20044;-68
2023/11/30 17:06:04;;;;;;;15.80;10.07;;;;;;;0.17;100.00;148712.09;10505172;28;20537;-68
2023/11/30 17:11:06;;;;;;;11.40;10.23;;;;;;;0.23;100.00;148726.22;10504520;28;20128;-68
2023/11/30 17:16:08;;;;;;;14.25;11.60;;;;;;;0.17;100.00;148710.84;10503137;28;20056;-68
2023/11/30 17:21:12;;;;;;;13.32;11.80;;;;;;;0.18;100.00;148714.72;10503778;28;20049;-68
2023/11/30 17:26:13;;;;;;;13.25;11.45;;;;;;;0.21;100.00;148722.34;10504804;28;20037;-68
2023/11/30 17:31:15;;;;;;;12.43;11.13;;;;;;;-0.01;100.00;148667.28;10504833;28;20041;-68
2023/11/30 17:36:17;;;;;;;14.40;11.82;;;;;;;-0.08;100.00;148648.13;10503414;28;20127;-68
2023/11/30 17:41:19;;;;;;;14.00;12.07;;;;;;;-0.02;100.00;148663.47;10503353;28;20407;-68
2023/11/30 17:46:20;;;;;;;14.25;12.73;;;;;;;0.14;100.00;148703.19;10503539;28;20063;-68
2023/11/30 17:51:22;;;;;;;17.02;11.98;;;;;;;0.05;100.00;148680.13;10503453;28;20040;-68
2023/11/30 17:56:24;;;;;;;14.40;12.48;;;;;;;-0.03;100.00;148662.19;10503871;28;20120;-68
2023/11/30 18:01:27;;;;;;;14.02;12.40;;;;;;;-0.24;100.00;148607.16;10501945;28;20049;-68
2023/11/30 18:06:29;;;;;;;30.23;18.67;;;;;;;0.08;100.00;148689.06;10501339;28;20127;-67
2023/11/30 18:11:31;;;;;;;14.48;12.05;;;;;;;0.02;100.00;148673.72;10502626;28;20048;-68
2023/11/30 18:16:33;;;;;;;15.38;13.77;;;;;;;0.07;100.00;148686.50;10499286;28;20090;-68
2023/11/30 18:21:35;;;;;;;17.42;13.45;;;;;;;0.01;100.00;148669.91;10502178;28;20129;-67
2023/11/30 18:26:36;;;;;;;15.85;14.18;;;;;;;-0.04;100.00;148659.66;10501977;28;20048;-69
2023/11/30 18:31:38;;;;;;;14.77;12.90;;;;;;;-0.03;100.00;148662.19;10500814;28;20131;-68
2023/11/30 18:36:40;;;;;;;16.95;12.10;;;;;;;0.04;100.00;148678.81;10501238;28;20119;-68
2023/11/30 18:41:42;;;;;;;19.38;13.73;;;;;;;-0.23;100.00;148609.72;10501120;28;20044;-68
2023/11/30 18:46:44;;;;;;;16.92;13.55;;;;;;;-0.22;100.00;148613.56;10499988;28;20063;-68
2023/11/30 18:51:46;;;;;;;17.25;13.70;;;;;;;-0.27;100.00;148602.06;10501419;28;20048;-68
2023/11/30 18:56:47;;;;;;;15.93;14.23;;;;;;;-0.27;100.00;148600.75;10501305;28;20115;-68
2023/11/30 19:01:49;;;;;;;16.23;13.02;;;;;;;-0.25;100.00;148605.88;10501753;28;20487;-68
2023/11/30 19:06:51;;;;;;;19.27;13.90;;;;;;;-0.15;100.00;148631.47;10502077;28;20037;-68
2023/11/30 19:11:53;;;;;;;19.10;14.38;;;;;;;-0.03;100.00;148660.94;10500856;28;20041;-69
2023/11/30 19:16:55;;;;;;;17.23;14.85;;;;;;;-0.01;100.00;148666.03;10500917;28;20052;-69
2023/11/30 19:21:56;;;;;;;16.70;14.15;;;;;;;-0.03;100.00;148660.94;10501829;28;20055;-69
2023/11/30 19:26:58;;;;;;;18.55;14.40;;;;;;;-0.13;100.00;148636.63;10500154;28;20048;-68
2023/11/30 19:32:00;;;;;;;15.55;13.70;;;;;;;-0.27;100.00;148600.75;10500336;28;20044;-67
2023/11/30 19:37:01;;;;;;;16.10;14.38;;;;;;;-0.11;100.00;148641.72;10500149;28;20094;-69
2023/11/30 19:42:03;;;;;;;18.48;14.02;;;;;;;0.28;100.00;148739.03;10500871;28;20041;-68
2023/11/30 19:47:06;;;;;;;16.42;14.65;;;;;;;0.14;100.00;148704.47;10499866;28;20123;-68
2023/11/30 19:52:09;;;;;;;24.50;14.45;;;;;;;-0.19;100.00;148621.22;10500119;28;20133;-68
2023/11/30 19:57:11;;;;;;;20.60;15.57;;;;;;;-0.09;100.00;148646.88;10481623;28;20051;-68
2023/11/30 20:02:13;;;;;;;18.67;15.27;;;;;;;0.15;100.00;148705.72;10481404;28;20068;-68
2023/11/30 20:07:15;;;;;;;23.60;15.88;;;;;;;0.03;100.00;148675.00;10499294;28;20123;-68
2023/11/30 20:12:17;;;;;;;19.95;14.40;;;;;;;-0.17;100.00;148625.09;10499199;28;20083;-68
2023/11/30 20:17:18;;;;;;;16.23;14.52;;;;;;;0.01;100.00;148669.91;10481244;28;20040;-68
2023/11/30 20:22:20;;;;;;;32.42;18.52;;;;;;;-0.34;100.00;148582.84;10499002;28;20056;-69
2023/11/30 20:27:22;;;;;;;16.15;13.50;;;;;;;-0.43;100.00;148561.09;10481634;28;20064;-69
2023/11/30 20:32:24;;;;;;;35.80;22.85;;;;;;;-0.45;100.00;148554.69;10499210;28;20045;-69
2023/11/30 20:37:26;;;;;;;18.50;14.73;;;;;;;-0.36;100.00;148578.97;10498776;28;20045;-68
2023/11/30 20:42:28;;;;;;;19.92;14.88;;;;;;;-0.38;100.00;148572.59;10499069;28;20119;-69
2023/11/30 20:47:30;;;;;;;18.83;15.15;;;;;;;-0.33;100.00;148585.41;10482180;28;20072;-69
2023/11/30 20:52:32;;;;;;;27.73;19.08;;;;;;;-0.56;100.00;148527.81;10500249;28;20429;-69
2023/11/30 20:57:35;;;;;;;29.85;18.33;;;;;;;-0.70;100.00;148492.00;10482166;28;20047;-68
2023/11/30 21:02:37;;;;;;;27.42;16.40;;;;;;;-0.60;100.00;148517.59;10506313;28;20543;-67
2023/11/30 21:07:38;;;;;;;22.63;16.52;;;;;;;-0.58;100.00;148523.94;10506764;28;20041;-68
2023/11/30 21:12:40;;;;;;;20.13;14.68;;;;;;;-0.57;100.00;148525.28;10505853;28;20125;-69
2023/11/30 21:17:42;;;;;;;21.17;15.05;;;;;;;-0.32;100.00;148587.94;10506453;28;20045;-69
2023/11/30 21:22:44;;;;;;;17.05;13.75;;;;;;;-0.37;100.00;148576.44;10505532;28;20075;-68
2023/11/30 21:27:46;;;;;;;17.13;12.98;;;;;;;-0.48;100.00;148547.03;10505113;28;20057;-68
2023/11/30 21:32:48;;;;;;;21.45;16.50;;;;;;;-0.21;100.00;148616.13;10487085;28;20045;-69
2023/11/30 21:37:50;;;;;;;27.92;17.05;;;;;;;-0.16;100.00;148628.91;10505395;28;20041;-69
2023/11/30 21:42:51;;;;;;;16.75;14.18;;;;;;;-0.14;100.00;148634.03;10504763;28;20046;-69
2023/11/30 21:47:53;;;;;;;20.67;14.60;;;;;;;-0.01;100.00;148667.28;10505652;28;20447;-69
2023/11/30 21:52:57;;;;;;;29.52;14.35;;;;;;;-0.20;100.00;148618.69;10504733;28;20516;-69
2023/11/30 21:57:59;;;;;;;24.33;15.82;;;;;;;-0.14;100.00;148634.03;10503367;28;20047;-70
2023/11/30 22:03:01;;;;;;;18.63;14.20;;;;;;;0.03;100.00;148675.00;10503310;28;20049;-68
2023/11/30 22:08:04;;;;;;;16.83;14.43;;;;;;;-0.30;100.00;148593.09;10503746;28;20040;-69
2023/11/30 22:13:05;;;;;;;18.50;15.65;;;;;;;-0.31;100.00;148591.81;10501172;28;20511;-68
2023/11/30 22:18:07;;;;;;;19.67;14.80;;;;;;;-0.32;100.00;148589.22;10501355;28;20045;-69
2023/11/30 22:23:09;;;;;;;23.10;15.50;;;;;;;-0.48;100.00;148547.03;10501485;28;20454;-69
2023/11/30 22:28:10;;;;;;;20.20;15.18;;;;;;;-0.30;100.00;148593.09;10501943;28;20036;-70
2023/11/30 22:33:12;;;;;;;18.25;13.73;;;;;;;-0.14;100.00;148634.03;10502374;28;20048;-68
2023/11/30 22:38:14;;;;;;;16.58;13.57;;;;;;;-0.35;100.00;148581.56;10501645;28;20040;-70
2023/11/30 22:43:15;;;;;;;19.10;15.02;;;;;;;-0.42;100.00;148562.38;10483903;28;20499;-69